createdAt,value
2022-09-13T00:00:54.205Z,97824.72
2022-09-13T00:03:21.758Z,97807.47
2022-09-13T00:05:48.852Z,97806.56
2022-09-13T00:08:16.553Z,97798.28
2022-09-13T00:10:45.248Z,97798.25
2022-09-13T00:13:14.343Z,97799.66
2022-09-13T00:15:50.054Z,97798.03
2022-09-13T00:18:18.565Z,97804.94
2022-09-13T00:20:46.280Z,97797.94
2022-09-13T00:23:14.063Z,97781.16
2022-09-13T00:25:41.462Z,97786.91
2022-09-13T00:28:08.467Z,97797.41
2022-09-13T00:30:37.046Z,97795.16
2022-09-13T00:33:04.870Z,97797.50
2022-09-13T00:35:32.274Z,97790.56
2022-09-13T00:38:02.098Z,97785.25
2022-09-13T00:40:30.542Z,97791.34
2022-09-13T00:42:57.719Z,97782.31
2022-09-13T00:45:24.648Z,97785.00
2022-09-13T00:48:05.548Z,97783.84
2022-09-13T00:50:47.487Z,97784.66
2022-09-13T00:53:17.705Z,97796.25
2022-09-13T00:55:51.247Z,97801.78
2022-09-13T00:58:29.775Z,97803.38
2022-09-13T01:00:59.860Z,97796.19
2022-09-13T01:03:30.932Z,97790.25
2022-09-13T01:06:10.314Z,97787.63
2022-09-13T01:08:41.602Z,97779.78
2022-09-13T01:11:29.894Z,97777.53
2022-09-13T01:13:58.474Z,97766.88
2022-09-13T01:16:26.515Z,97776.25
2022-09-13T01:18:53.576Z,97773.44
2022-09-13T01:22:16.308Z,97769.16
2022-09-13T01:25:19.885Z,97765.09
2022-09-13T01:28:25.795Z,97772.06
2022-09-13T01:31:02.684Z,97778.25
2022-09-13T01:33:52.175Z,97783.78
2022-09-13T01:36:49.532Z,97791.16
2022-09-13T01:39:58.896Z,97776.53
2022-09-13T01:43:10.057Z,97774.53
2022-09-13T01:46:13.867Z,97781.38
2022-09-13T01:49:10.038Z,97788.13
2022-09-13T01:51:54.543Z,97786.63
2022-09-13T01:54:58.655Z,97773.41
2022-09-13T01:57:41.256Z,97783.69
2022-09-13T02:00:15.429Z,97772.19
2022-09-13T02:03:12.983Z,97774.38
2022-09-13T02:05:48.091Z,97776.09
2022-09-13T02:08:44.423Z,97772.84
2022-09-13T02:11:17.331Z,97776.22
2022-09-13T02:13:55.603Z,97782.22
2022-09-13T02:16:41.990Z,97782.28
2022-09-13T02:19:19.077Z,97777.34
2022-09-13T02:21:55.397Z,97771.34
2022-09-13T02:24:31.354Z,97768.91
2022-09-13T02:27:04.229Z,97770.50
2022-09-13T02:29:33.488Z,97777.78
2022-09-13T02:32:40.690Z,97767.91
2022-09-13T02:35:12.380Z,97767.91
2022-09-13T02:37:42.920Z,97781.59
2022-09-13T02:40:22.912Z,97785.09
2022-09-13T02:43:16.264Z,97789.84
2022-09-13T02:45:59.327Z,97795.59
2022-09-13T02:48:40.301Z,97790.69
2022-09-13T02:51:30.563Z,97783.09
2022-09-13T02:54:11.265Z,97788.03
2022-09-13T02:56:51.628Z,97785.28
2022-09-13T02:59:22.207Z,97781.72
2022-09-13T03:02:04.034Z,97778.41
2022-09-13T03:04:32.621Z,97776.88
2022-09-13T03:07:00.045Z,97778.91
2022-09-13T03:09:27.640Z,97774.50
2022-09-13T03:12:23.286Z,97773.69
2022-09-13T03:15:03.784Z,97776.16
2022-09-13T03:18:08.538Z,97787.81
2022-09-13T03:20:58.996Z,97784.75
2022-09-13T03:23:43.473Z,97783.91
2022-09-13T03:26:59.232Z,97770.38
2022-09-13T03:29:44.265Z,97768.19
2022-09-13T03:32:55.415Z,97764.97
2022-09-13T03:35:53.266Z,97764.88
2022-09-13T03:38:32.020Z,97756.13
2022-09-13T03:41:17.344Z,97753.38
2022-09-13T03:43:58.904Z,97752.56
2022-09-13T03:46:57.588Z,97767.00
2022-09-13T03:49:27.525Z,97768.84
2022-09-13T03:51:55.100Z,97771.06
2022-09-13T03:54:32.519Z,97773.13
2022-09-13T03:57:21.527Z,97785.47
2022-09-13T03:59:58.833Z,97779.06
2022-09-13T04:02:27.134Z,97776.94
2022-09-13T04:04:54.288Z,97763.53
2022-09-13T04:07:24.306Z,97767.13
2022-09-13T04:09:51.578Z,97762.84
2022-09-13T04:12:19.163Z,97750.38
2022-09-13T04:14:46.484Z,97754.28
2022-09-13T04:17:14.567Z,97753.47
2022-09-13T04:19:44.632Z,97751.97
2022-09-13T04:22:11.619Z,97748.72
2022-09-13T04:24:39.749Z,97739.66
2022-09-13T04:27:07.320Z,97725.56
2022-09-13T04:29:34.271Z,97728.94
2022-09-13T04:32:01.492Z,97733.78
2022-09-13T04:34:28.460Z,97734.41
2022-09-13T04:36:55.509Z,97739.16
2022-09-13T04:39:23.773Z,97743.78
2022-09-13T04:41:52.175Z,97741.25
2022-09-13T04:44:20.543Z,97746.19
2022-09-13T04:46:49.160Z,97761.28
2022-09-13T04:49:17.938Z,97749.91
2022-09-13T04:51:45.069Z,97759.34
2022-09-13T04:54:15.638Z,97766.13
2022-09-13T04:56:44.452Z,97774.91
2022-09-13T04:59:12.183Z,97778.41
2022-09-13T05:01:39.547Z,97788.25
2022-09-13T05:04:07.683Z,97786.47
2022-09-13T05:06:35.040Z,97789.03
2022-09-13T05:09:02.766Z,97794.13
2022-09-13T05:11:30.362Z,97792.88
2022-09-13T05:14:00.205Z,97804.78
2022-09-13T05:16:32.688Z,97816.16
2022-09-13T05:19:00.603Z,97810.31
2022-09-13T05:21:30.973Z,97808.56
2022-09-13T05:23:58.737Z,97806.72
2022-09-13T05:26:29.551Z,97801.91
2022-09-13T05:28:56.804Z,97800.22
2022-09-13T05:31:44.561Z,97795.44
2022-09-13T05:34:15.113Z,97805.31
2022-09-13T05:36:43.123Z,97803.72
2022-09-13T05:42:05.144Z,97799.66
2022-09-13T05:44:32.177Z,97798.66
2022-09-13T05:46:59.106Z,97802.44
2022-09-13T05:49:26.246Z,97810.31
2022-09-13T05:51:53.293Z,97810.03
2022-09-13T05:54:20.397Z,97822.22
2022-09-13T05:56:47.624Z,97820.47
2022-09-13T05:59:14.876Z,97818.34
2022-09-13T06:01:42.263Z,97817.50
2022-09-13T06:04:09.287Z,97815.63
2022-09-13T06:06:36.254Z,97814.66
2022-09-13T06:09:06.617Z,97818.38
2022-09-13T06:11:33.684Z,97811.84
2022-09-13T06:14:00.782Z,97813.00
2022-09-13T06:16:27.865Z,97817.56
2022-09-13T06:18:55.076Z,97816.25
2022-09-13T06:21:28.228Z,97819.25
2022-09-13T06:23:56.630Z,97819.00
2022-09-13T06:26:26.815Z,97820.94
2022-09-13T06:28:57.126Z,97816.09
2022-09-13T06:31:27.808Z,97820.63
2022-09-13T06:34:02.443Z,97817.53
2022-09-13T06:36:30.279Z,97824.19
2022-09-13T06:38:58.045Z,97831.53
2022-09-13T06:41:27.402Z,97821.66
2022-09-13T06:43:57.578Z,97819.72
2022-09-13T06:46:29.367Z,97821.09
2022-09-13T06:49:00.052Z,97826.03
2022-09-13T06:51:27.337Z,97816.63
2022-09-13T06:53:56.643Z,97812.66
2022-09-13T06:56:33.617Z,97807.31
2022-09-13T06:59:04.855Z,97801.31
2022-09-13T07:01:38.180Z,97800.50
2022-09-13T07:04:09.710Z,97799.03
2022-09-13T07:06:43.022Z,97810.53
2022-09-13T07:09:18.118Z,97796.66
2022-09-13T07:11:47.073Z,97791.78
2022-09-13T07:14:26.483Z,97793.22
2022-09-13T07:16:54.464Z,97791.22
2022-09-13T07:19:24.357Z,97791.78
2022-09-13T07:21:51.356Z,97798.97
2022-09-13T07:24:19.475Z,97801.13
2022-09-13T07:26:46.959Z,97793.03
2022-09-13T07:29:19.185Z,97776.28
2022-09-13T07:31:48.874Z,97784.06
2022-09-13T07:34:25.048Z,97783.84
2022-09-13T07:36:52.727Z,97796.66
2022-09-13T07:39:22.630Z,97786.75
2022-09-13T07:41:51.267Z,97782.81
2022-09-13T07:44:18.412Z,97781.84
2022-09-13T07:46:45.649Z,97789.78
2022-09-13T07:49:16.229Z,97803.41
2022-09-13T07:51:44.180Z,97802.28
2022-09-13T07:54:15.373Z,97804.66
2022-09-13T07:56:42.469Z,97798.69
2022-09-13T07:59:15.505Z,97794.53
2022-09-13T08:01:45.781Z,97789.56
2022-09-13T08:04:24.629Z,97794.50
2022-09-13T08:06:51.609Z,97789.63
2022-09-13T08:09:18.969Z,97780.00
2022-09-13T08:11:51.949Z,97782.06
2022-09-13T08:14:21.304Z,97773.13
2022-09-13T08:16:48.578Z,97772.31
2022-09-13T08:19:18.353Z,97776.75
2022-09-13T08:21:46.678Z,97779.25
2022-09-13T08:24:21.615Z,97786.91
2022-09-13T08:26:49.218Z,97780.06
2022-09-13T08:29:17.129Z,97782.97
2022-09-13T08:31:44.423Z,97779.06
2022-09-13T08:34:14.598Z,97777.16
2022-09-13T08:36:41.921Z,97789.91
2022-09-13T08:39:11.933Z,97788.75
2022-09-13T08:41:48.759Z,97793.16
2022-09-13T08:44:30.125Z,97788.78
2022-09-13T08:47:47.528Z,97777.28
2022-09-13T08:50:28.474Z,97772.97
2022-09-13T08:53:07.181Z,97778.91
2022-09-13T08:55:51.776Z,97756.44
2022-09-13T08:58:46.375Z,97755.44
2022-09-13T09:01:31.516Z,97757.00
2022-09-13T09:04:07.211Z,97775.59
2022-09-13T09:06:36.547Z,97762.34
2022-09-13T09:09:08.307Z,97760.25
2022-09-13T09:11:55.184Z,97770.78
2022-09-13T09:14:32.557Z,97775.22
2022-09-13T09:17:04.712Z,97766.56
2022-09-13T09:19:42.144Z,97761.38
2022-09-13T09:22:24.696Z,97762.66
2022-09-13T09:24:56.253Z,97770.19
2022-09-13T09:27:23.583Z,97769.41
2022-09-13T09:29:58.266Z,97766.97
2022-09-13T09:33:11.584Z,97763.53
2022-09-13T09:36:08.235Z,97764.38
2022-09-13T09:38:43.326Z,97756.59
2022-09-13T09:41:32.660Z,97757.13
2022-09-13T09:44:27.657Z,97755.25
2022-09-13T09:47:15.541Z,97758.16
2022-09-13T09:50:12.141Z,97751.75
2022-09-13T09:52:53.530Z,97754.16
2022-09-13T09:55:45.779Z,97758.72
2022-09-13T09:58:16.893Z,97749.03
2022-09-13T10:00:56.272Z,97747.19
2022-09-13T10:03:33.988Z,97746.13
2022-09-13T10:06:14.895Z,97750.16
2022-09-13T10:08:44.311Z,97746.78
2022-09-13T10:11:11.982Z,97746.34
2022-09-13T10:13:38.957Z,97748.41
2022-09-13T10:16:34.093Z,97757.53
2022-09-13T10:19:24.978Z,97768.25
2022-09-13T10:22:04.167Z,97764.47
2022-09-13T10:24:32.066Z,97760.78
2022-09-13T10:26:59.743Z,97757.81
2022-09-13T10:29:28.560Z,97759.16
2022-09-13T10:31:58.463Z,97755.25
2022-09-13T10:34:31.890Z,97762.00
2022-09-13T10:37:06.528Z,97756.28
2022-09-13T10:39:36.553Z,97751.94
2022-09-13T10:42:07.148Z,97745.13
2022-09-13T10:45:07.719Z,97733.63
2022-09-13T10:47:49.202Z,97734.28
2022-09-13T10:50:27.979Z,97737.06
2022-09-13T10:53:00.426Z,97721.56
2022-09-13T10:55:35.819Z,97721.84
2022-09-13T10:58:02.885Z,97720.09
2022-09-13T11:00:57.789Z,97723.22
2022-09-13T11:03:52.969Z,97725.53
2022-09-13T11:06:52.359Z,97735.53
2022-09-13T11:09:55.486Z,97736.44
2022-09-13T11:12:41.293Z,97728.16
2022-09-13T11:15:28.057Z,97727.09
2022-09-13T11:18:22.743Z,97716.81
2022-09-13T11:21:26.382Z,97720.78
2022-09-13T11:24:22.478Z,97719.66
2022-09-13T11:27:38.146Z,97723.00
2022-09-13T11:30:29.880Z,97726.31
2022-09-13T11:33:21.913Z,97728.88
2022-09-13T11:36:11.218Z,97729.94
2022-09-13T11:38:56.822Z,97737.50
2022-09-13T11:41:58.948Z,97730.34
2022-09-13T11:45:18.180Z,97724.13
2022-09-13T11:48:12.890Z,97733.59
2022-09-13T11:51:36.103Z,97744.06
2022-09-13T11:54:21.972Z,97756.41
2022-09-13T11:56:56.101Z,97750.47
2022-09-13T11:59:42.652Z,97753.81
2022-09-13T12:02:24.524Z,97742.09
2022-09-13T12:05:20.979Z,97729.13
2022-09-13T12:07:52.685Z,97732.88
2022-09-13T12:10:29.449Z,97728.56
2022-09-13T12:12:58.283Z,97721.25
2022-09-13T12:15:43.709Z,97716.75
2022-09-13T12:18:17.651Z,97699.78
2022-09-13T12:21:07.240Z,97694.38
2022-09-13T12:23:50.215Z,97710.13
2022-09-13T12:26:25.169Z,97710.56
2022-09-13T12:29:01.761Z,97713.59
2022-09-13T12:31:31.640Z,97709.13
2022-09-13T12:33:59.874Z,97704.19
2022-09-13T12:37:16.822Z,97698.16
2022-09-13T12:40:12.139Z,97691.22
2022-09-13T12:43:11.442Z,97692.28
2022-09-13T12:46:04.185Z,97698.09
2022-09-13T12:48:50.290Z,97687.28
2022-09-13T12:52:01.903Z,97683.84
2022-09-13T12:55:29.396Z,97667.00
2022-09-13T12:58:34.458Z,97681.59
2022-09-13T13:01:23.684Z,97672.66
2022-09-13T13:03:58.020Z,97659.63
2022-09-13T13:06:37.115Z,97647.81
2022-09-13T13:09:27.882Z,97651.81
2022-09-13T13:11:57.350Z,97642.69
2022-09-13T13:14:39.410Z,97634.91
2022-09-13T13:18:20.154Z,97620.03
2022-09-13T13:20:56.215Z,97618.91
2022-09-13T13:23:34.445Z,97615.94
2022-09-13T13:26:23.564Z,97617.06
2022-09-13T13:29:16.692Z,97613.16
2022-09-13T13:31:57.000Z,97608.19
2022-09-13T13:34:23.846Z,97623.25
2022-09-13T13:37:13.574Z,97612.94
2022-09-13T13:40:13.092Z,97607.84
2022-09-13T13:42:41.163Z,97609.72
2022-09-13T13:45:26.677Z,97604.19
2022-09-13T13:48:15.205Z,97607.75
2022-09-13T13:51:17.298Z,97604.19
2022-09-13T13:53:52.812Z,97596.97
2022-09-13T13:56:25.042Z,97596.94
2022-09-13T13:59:13.928Z,97601.16
2022-09-13T14:01:49.171Z,97589.25
2022-09-13T14:04:40.747Z,97592.03
2022-09-13T14:07:20.006Z,97593.56
2022-09-13T14:10:17.491Z,97598.75
2022-09-13T14:13:10.515Z,97589.47
2022-09-13T14:15:51.736Z,97578.38
2022-09-13T14:18:48.064Z,97579.38
2022-09-13T14:21:30.109Z,97578.50
2022-09-13T14:24:23.447Z,97578.84
2022-09-13T14:26:58.516Z,97585.56
2022-09-13T14:29:26.230Z,97577.59
2022-09-13T14:32:07.151Z,97582.25
2022-09-13T14:34:38.719Z,97573.97
2022-09-13T14:37:17.477Z,97575.38
2022-09-13T14:40:08.241Z,97570.03
2022-09-13T14:42:47.679Z,97564.16
2022-09-13T14:45:21.107Z,97561.25
2022-09-13T14:48:18.537Z,97562.16
2022-09-13T14:51:27.865Z,97559.81
2022-09-13T14:54:08.599Z,97550.44
2022-09-13T14:56:48.035Z,97548.63
2022-09-13T14:59:44.844Z,97549.75
2022-09-13T15:02:30.268Z,97562.28
2022-09-13T15:05:00.756Z,97565.00
2022-09-13T15:07:39.583Z,97546.59
2022-09-13T15:10:12.536Z,97559.84
2022-09-13T15:13:07.665Z,97542.38
2022-09-13T15:15:41.208Z,97534.91
2022-09-13T15:18:26.011Z,97526.09
2022-09-13T15:21:01.632Z,97525.41
2022-09-13T15:23:37.076Z,97521.91
2022-09-13T15:26:23.095Z,97517.63
2022-09-13T15:28:53.616Z,97509.00
2022-09-13T15:31:26.253Z,97512.28
2022-09-13T15:34:18.237Z,97513.13
2022-09-13T15:37:01.651Z,97501.53
2022-09-13T15:39:28.976Z,97504.25
2022-09-13T15:42:00.914Z,97502.97
2022-09-13T15:44:29.949Z,97496.44
2022-09-13T15:47:04.436Z,97494.25
2022-09-13T15:49:32.363Z,97485.88
2022-09-13T15:52:05.625Z,97483.28
2022-09-13T15:54:43.550Z,97478.81
2022-09-13T15:57:22.061Z,97482.16
2022-09-13T15:59:49.129Z,97482.63
2022-09-13T16:02:21.663Z,97473.06
2022-09-13T16:04:49.446Z,97469.16
2022-09-13T16:07:16.827Z,97478.63
2022-09-13T16:09:44.766Z,97475.59
2022-09-13T16:12:11.814Z,97468.22
2022-09-13T16:14:38.968Z,97470.75
2022-09-13T16:17:22.833Z,97449.88
2022-09-13T16:19:49.924Z,97445.00
2022-09-13T16:22:17.156Z,97447.56
2022-09-13T16:24:44.155Z,97443.34
2022-09-13T16:27:17.953Z,97452.38
2022-09-13T16:29:45.164Z,97446.72
2022-09-13T16:32:12.488Z,97436.91
2022-09-13T16:34:39.518Z,97434.72
2022-09-13T16:37:06.488Z,97428.81
2022-09-13T16:39:33.362Z,97431.53
2022-09-13T16:42:00.302Z,97441.47
2022-09-13T16:44:27.444Z,97437.97
2022-09-13T16:46:54.500Z,97440.41
2022-09-13T16:49:21.695Z,97437.19
2022-09-13T16:51:48.649Z,97426.50
2022-09-13T16:54:18.656Z,97435.22
2022-09-13T16:56:45.631Z,97427.00
2022-09-13T16:59:12.689Z,97424.91
2022-09-13T17:01:39.950Z,97414.94
2022-09-13T17:04:07.522Z,97415.31
2022-09-13T17:06:34.529Z,97411.72
2022-09-13T17:09:05.452Z,97425.19
2022-09-13T17:11:41.331Z,97423.38
2022-09-13T17:14:12.326Z,97430.22
2022-09-13T17:16:50.726Z,97428.56
2022-09-13T17:19:22.385Z,97421.25
2022-09-13T17:21:50.315Z,97413.50
2022-09-13T17:24:17.695Z,97419.53
2022-09-13T17:26:46.835Z,97424.16
2022-09-13T17:29:14.906Z,97420.38
2022-09-13T17:31:43.593Z,97418.53
2022-09-13T17:34:12.963Z,97418.56
2022-09-13T17:36:41.865Z,97427.53
2022-09-13T17:39:10.109Z,97421.22
2022-09-13T17:41:37.724Z,97432.47
2022-09-13T17:44:04.798Z,97426.50
2022-09-13T17:46:31.936Z,97435.22
2022-09-13T17:49:00.169Z,97436.78
2022-09-13T17:51:32.838Z,97433.75
2022-09-13T17:54:06.840Z,97437.84
2022-09-13T17:56:40.972Z,97440.69
2022-09-13T17:59:18.288Z,97433.28
2022-09-13T18:01:51.839Z,97434.66
2022-09-13T18:04:22.222Z,97439.22
2022-09-13T18:06:52.269Z,97440.16
2022-09-13T18:09:19.713Z,97443.81
2022-09-13T18:11:46.795Z,97444.34
2022-09-13T18:14:16.269Z,97441.28
2022-09-13T18:16:43.882Z,97450.19
2022-09-13T18:19:11.551Z,97445.19
2022-09-13T18:21:38.602Z,97444.41
2022-09-13T18:24:06.933Z,97446.81
2022-09-13T18:26:34.255Z,97452.97
2022-09-13T18:29:04.578Z,97450.84
2022-09-13T18:31:34.569Z,97449.44
2022-09-13T18:34:10.897Z,97447.75
2022-09-13T18:36:38.815Z,97453.16
2022-09-13T18:39:07.901Z,97448.38
2022-09-13T18:41:42.509Z,97452.09
2022-09-13T18:44:11.380Z,97451.59
2022-09-13T18:46:39.257Z,97453.53
2022-09-13T18:49:07.220Z,97456.41
2022-09-13T18:51:36.473Z,97455.81
2022-09-13T18:54:06.132Z,97448.06
2022-09-13T18:56:36.079Z,97459.91
2022-09-13T18:59:06.231Z,97454.66
2022-09-13T19:01:36.797Z,97464.06
2022-09-13T19:04:17.511Z,97451.59
2022-09-13T19:06:48.393Z,97463.31
2022-09-13T19:09:15.961Z,97462.34
2022-09-13T19:11:47.749Z,97466.63
2022-09-13T19:14:23.262Z,97471.53
2022-09-13T19:16:52.532Z,97474.00
2022-09-13T19:19:20.221Z,97471.66
2022-09-13T19:21:47.406Z,97472.31
2022-09-13T19:24:20.374Z,97479.56
2022-09-13T19:26:51.183Z,97476.25
2022-09-13T19:29:22.980Z,97480.00
2022-09-13T19:31:52.530Z,97475.00
2022-09-13T19:34:22.257Z,97473.72
2022-09-13T19:36:53.506Z,97475.91
2022-09-13T19:39:20.459Z,97486.06
2022-09-13T19:41:47.527Z,97484.22
2022-09-13T19:44:14.761Z,97488.47
2022-09-13T19:46:42.832Z,97494.16
2022-09-13T19:49:14.682Z,97491.81
2022-09-13T19:51:45.531Z,97487.94
2022-09-13T19:54:18.257Z,97488.97
2022-09-13T19:56:45.341Z,97485.84
2022-09-13T19:59:16.097Z,97477.22
2022-09-13T20:01:45.620Z,97487.19
2022-09-13T20:04:17.011Z,97487.22
2022-09-13T20:06:47.371Z,97490.63
2022-09-13T20:09:16.402Z,97489.91
2022-09-13T20:11:45.422Z,97498.94
2022-09-13T20:14:14.821Z,97483.19
2022-09-13T20:16:42.912Z,97475.66
2022-09-13T20:19:39.426Z,97465.09
2022-09-13T20:22:09.856Z,97483.06
2022-09-13T20:24:37.352Z,97473.56
2022-09-13T20:27:04.522Z,97475.31
2022-09-13T20:29:31.696Z,97472.25
2022-09-13T20:31:59.532Z,97463.84
2022-09-13T20:34:27.108Z,97462.06
2022-09-13T20:36:54.162Z,97456.41
2022-09-13T20:39:21.116Z,97457.50
2022-09-13T20:41:50.146Z,97464.59
2022-09-13T20:44:17.458Z,97459.19
2022-09-13T20:46:44.501Z,97452.84
2022-09-13T20:49:11.851Z,97459.69
2022-09-13T20:51:39.060Z,97452.19
2022-09-13T20:54:06.932Z,97448.50
2022-09-13T20:56:33.829Z,97443.63
2022-09-13T20:59:01.128Z,97450.47
2022-09-13T21:01:30.211Z,97433.88
2022-09-13T21:04:00.101Z,97434.16
2022-09-13T21:06:30.368Z,97435.78
2022-09-13T21:09:00.018Z,97438.25
2022-09-13T21:11:35.028Z,97437.47
2022-09-13T21:14:09.537Z,97437.56
2022-09-13T21:16:39.685Z,97435.22
2022-09-13T21:19:08.135Z,97435.56
2022-09-13T21:21:39.796Z,97428.06
2022-09-13T21:24:09.780Z,97432.38
2022-09-13T21:26:41.931Z,97431.66
2022-09-13T21:29:10.345Z,97429.94
2022-09-13T21:31:37.988Z,97424.22
2022-09-13T21:34:10.917Z,97424.41
2022-09-13T21:36:38.000Z,97433.50
2022-09-13T21:39:05.951Z,97441.25
2022-09-13T21:41:33.442Z,97436.31
2022-09-13T21:44:00.495Z,97426.38
2022-09-13T21:46:34.033Z,97422.56
2022-09-13T21:49:04.905Z,97412.00
2022-09-13T21:51:38.969Z,97411.03
2022-09-13T21:54:10.883Z,97413.25
2022-09-13T21:56:42.017Z,97414.81
2022-09-13T21:59:17.061Z,97403.56
2022-09-13T22:01:47.772Z,97406.09
2022-09-13T22:04:24.146Z,97408.84
2022-09-13T22:06:53.626Z,97414.88
2022-09-13T22:09:26.236Z,97409.63
2022-09-13T22:11:53.942Z,97407.47
2022-09-13T22:14:22.464Z,97401.94
2022-09-13T22:16:50.815Z,97392.84
2022-09-13T22:19:25.926Z,97383.34
2022-09-13T22:21:59.581Z,97386.66
2022-09-13T22:24:31.142Z,97380.38
2022-09-13T22:26:58.987Z,97380.69
2022-09-13T22:29:26.795Z,97380.19
2022-09-13T22:31:53.846Z,97377.50
2022-09-13T22:34:24.307Z,97377.41
2022-09-13T22:36:53.654Z,97384.00
2022-09-13T22:39:20.697Z,97379.72
2022-09-13T22:41:47.555Z,97366.03
2022-09-13T22:44:15.607Z,97365.44
2022-09-13T22:46:44.920Z,97365.91
2022-09-13T22:49:15.100Z,97343.56
2022-09-13T22:51:44.999Z,97335.72
2022-09-13T22:54:13.097Z,97333.66
2022-09-13T22:56:40.155Z,97326.47
2022-09-13T22:59:12.385Z,97330.72
2022-09-13T23:01:39.445Z,97331.59
2022-09-13T23:04:07.162Z,97335.59
2022-09-13T23:06:35.368Z,97336.47
2022-09-13T23:09:06.400Z,97342.22
2022-09-13T23:11:39.047Z,97350.56
2022-09-13T23:14:10.341Z,97354.06
2022-09-13T23:16:46.919Z,97356.81
2022-09-13T23:19:15.247Z,97349.81
2022-09-13T23:21:43.612Z,97345.28
2022-09-13T23:24:17.537Z,97339.31
2022-09-13T23:26:45.871Z,97339.25
2022-09-13T23:29:17.593Z,97336.50
2022-09-13T23:31:46.121Z,97329.41
2022-09-13T23:34:14.236Z,97324.41
2022-09-13T23:36:43.922Z,97335.91
2022-09-13T23:39:16.572Z,97325.06
2022-09-13T23:41:45.087Z,97331.94
2022-09-13T23:44:12.088Z,97324.28
2022-09-13T23:46:39.266Z,97327.72
2022-09-13T23:49:06.354Z,97325.34
2022-09-13T23:51:33.617Z,97315.81
2022-09-13T23:54:01.124Z,97315.44
2022-09-13T23:56:30.939Z,97305.56
2022-09-13T23:59:00.277Z,97314.06
